Terminal Aerodrome Forecast
Issued by NWS

Home | Current Version | Previous Version | Graphics & Text | Print | Product List | Glossary On
Versions: 1 2 3 4 5 6 7 8 9 10 11 12 13 14 15
596
FTUS43 KTOP 241940 AAA
TAFFOE
TAF AMD
KFOE 241940Z 2420/2518 35008G20KT P6SM SCT100
     FM242200 34007G20KT P6SM VCSH SCT025 OVC050
     FM250900 34006KT 5SM -RA OVC013
     FM251300 33005KT 5SM -RA OVC006=

USA.gov is the U.S. government's official web portal to all federal, state and local government web resources and services.